Time;durP1;ratioP1;P1;durP2;ratioP2;P2;SDS_P1;SDS_P2;PMS_P1;PMS_P2;Temp;Humidity;BMP_temperature;BMP_pressure;BME280_temperature;BME280_humidity;BME280_pressure;Samples;Min_cycle;Max_cycle;Signal;HPM_P1;HPM_P2
2022/09/22 00:01:05;;;;;;;2.75;2.20;;;15.20;83.00;;;;;;5024852;28;20119;-79
2022/09/22 00:03:42;;;;;;;1.75;1.65;;;15.10;82.30;;;;;;5022994;28;20405;-79
2022/09/22 00:06:10;;;;;;;2.63;2.42;;;15.10;83.00;;;;;;5023177;28;20042;-79
2022/09/22 00:08:39;;;;;;;2.58;2.33;;;15.10;82.60;;;;;;5025091;28;20045;-78
2022/09/22 00:11:15;;;;;;;2.67;2.45;;;15.10;82.60;;;;;;5037413;28;20582;-78
2022/09/22 00:13:52;;;;;;;2.80;2.60;;;15.10;83.50;;;;;;5036807;28;20038;-79
2022/09/22 00:16:23;;;;;;;2.58;2.28;;;15.10;83.00;;;;;;5006837;28;20040;-79
2022/09/22 00:18:49;;;;;;;2.67;2.47;;;15.10;84.90;;;;;;5023555;28;20140;-80
2022/09/22 00:21:17;;;;;;;2.45;2.25;;;15.00;82.20;;;;;;5023221;28;20116;-81
2022/09/22 00:23:45;;;;;;;2.83;2.63;;;15.00;82.60;;;;;;5009256;28;20034;-79
2022/09/22 00:26:14;;;;;;;3.33;3.03;;;15.10;82.70;;;;;;5023127;28;20029;-81
2022/09/22 00:28:41;;;;;;;3.10;2.80;;;15.00;82.80;;;;;;5020560;28;20105;-80
2022/09/22 00:31:12;;;;;;;3.13;2.83;;;15.00;82.60;;;;;;5008816;28;20034;-81
2022/09/22 00:33:40;;;;;;;4.43;3.30;;;15.10;82.70;;;;;;5022424;28;20034;-80
2022/09/22 00:36:07;;;;;;;3.20;2.90;;;15.10;82.70;;;;;;5020656;28;20038;-81
2022/09/22 00:38:33;;;;;;;4.05;3.30;;;15.00;82.40;;;;;;5021541;28;20095;-81
2022/09/22 00:41:00;;;;;;;3.03;2.72;;;15.00;82.50;;;;;;5005370;28;20038;-79
2022/09/22 00:43:29;;;;;;;3.20;2.60;;;15.00;82.40;;;;;;5009754;28;20454;-79
2022/09/22 00:46:13;;;;;;;3.35;2.70;;;15.00;82.50;;;;;;5023050;28;20051;-80
2022/09/22 00:48:47;;;;;;;3.85;2.60;;;15.00;82.40;;;;;;5023010;28;20025;-79
2022/09/22 00:51:21;;;;;;;3.00;2.70;;;15.00;82.30;;;;;;5020501;28;20115;-80
2022/09/22 00:53:47;;;;;;;2.72;2.53;;;15.00;82.20;;;;;;5022558;28;20068;-78
2022/09/22 00:56:20;;;;;;;2.63;2.42;;;15.00;82.20;;;;;;5021360;28;20037;-80
2022/09/22 00:59:00;;;;;;;3.05;2.72;;;15.00;82.10;;;;;;5020884;28;20030;-81
2022/09/22 01:01:26;;;;;;;3.08;2.55;;;15.00;82.20;;;;;;5021689;28;20088;-81
2022/09/22 01:03:53;;;;;;;2.85;2.50;;;15.10;82.20;;;;;;5021014;28;20017;-82
2022/09/22 01:06:23;;;;;;;2.50;2.35;;;15.00;82.00;;;;;;5021258;28;20024;-80
2022/09/22 01:08:49;;;;;;;2.42;2.22;;;15.00;82.10;;;;;;5020874;28;20037;-80
2022/09/22 01:11:17;;;;;;;3.13;2.55;;;15.00;82.10;;;;;;5025126;28;20042;-81
2022/09/22 01:14:34;;;;;;;2.78;2.45;;;15.10;82.10;;;;;;5021177;28;20546;-82
2022/09/22 01:17:06;;;;;;;2.65;2.45;;;15.00;82.00;;;;;;5016372;28;20037;-81
2022/09/22 01:19:55;;;;;;;2.78;2.58;;;15.10;82.00;;;;;;5018132;28;20037;-80
2022/09/22 01:22:52;;;;;;;3.08;2.30;;;15.00;82.10;;;;;;5019244;28;20034;-78
2022/09/22 01:25:39;;;;;;;2.60;2.40;;;15.00;82.00;;;;;;5021405;28;20488;-80
2022/09/22 01:29:06;;;;;;;2.90;2.60;;;15.10;82.10;;;;;;5019943;28;20092;-79
2022/09/22 01:31:44;;;;;;;2.60;2.10;;;15.00;82.00;;;;;;5011600;28;20030;-79
2022/09/22 01:34:36;;;;;;;2.55;2.28;;;15.10;82.20;;;;;;5016071;28;20612;-80
2022/09/22 01:37:12;;;;;;;2.55;2.35;;;15.00;82.00;;;;;;5030833;28;20075;-81
2022/09/22 01:39:42;;;;;;;3.05;2.60;;;15.00;82.70;;;;;;5032903;28;20041;-81
2022/09/22 01:42:29;;;;;;;3.05;2.47;;;15.00;82.00;;;;;;5031377;28;20042;-81
2022/09/22 01:45:16;;;;;;;2.88;2.50;;;15.10;82.10;;;;;;5033489;28;20148;-80
2022/09/22 01:47:46;;;;;;;3.40;2.67;;;15.00;82.00;;;;;;5031729;28;20029;-80
2022/09/22 01:50:23;;;;;;;2.60;2.40;;;15.00;82.00;;;;;;5031832;28;20100;-79
2022/09/22 01:52:51;;;;;;;2.63;2.42;;;15.00;82.00;;;;;;5032256;28;20467;-80
2022/09/22 01:55:30;;;;;;;2.53;2.33;;;15.00;82.10;;;;;;4999230;28;20132;-81
2022/09/22 01:58:07;;;;;;;2.67;2.47;;;15.00;82.00;;;;;;5014306;28;20127;-81
2022/09/22 02:00:38;;;;;;;3.00;2.65;;;15.00;82.00;;;;;;5004030;28;20056;-80
2022/09/22 02:03:18;;;;;;;2.80;2.45;;;15.00;81.90;;;;;;5015339;28;20264;-81
2022/09/22 02:05:51;;;;;;;2.97;2.60;;;15.00;82.00;;;;;;5014867;28;20049;-81
2022/09/22 02:08:32;;;;;;;4.68;3.03;;;15.00;82.00;;;;;;5007023;28;20129;-81
2022/09/22 02:11:06;;;;;;;2.63;2.42;;;15.00;82.20;;;;;;5011560;28;20037;-82
2022/09/22 02:13:32;;;;;;;3.17;2.88;;;15.00;82.20;;;;;;5018564;28;20107;-81
2022/09/22 02:16:01;;;;;;;3.25;2.95;;;15.00;82.10;;;;;;5019550;28;20476;-80
2022/09/22 02:18:35;;;;;;;2.75;2.55;;;15.00;82.10;;;;;;5019827;28;20504;-80
2022/09/22 02:21:02;;;;;;;3.58;3.28;;;15.00;82.00;;;;;;5006461;28;20448;-80
2022/09/22 02:23:31;;;;;;;3.63;3.33;;;15.00;82.00;;;;;;5019911;28;20034;-80
2022/09/22 02:26:00;;;;;;;5.22;3.10;;;15.00;82.10;;;;;;5021304;28;20471;-80
2022/09/22 02:28:30;;;;;;;4.20;3.20;;;15.00;82.10;;;;;;5035865;28;20060;-80
2022/09/22 02:30:58;;;;;;;4.00;3.60;;;15.00;82.00;;;;;;5026682;28;20155;-80
2022/09/22 02:33:26;;;;;;;3.67;3.38;;;15.00;82.00;;;;;;5023280;28;20095;-80
2022/09/22 02:36:09;;;;;;;3.70;3.40;;;15.00;82.00;;;;;;5023324;28;20045;-80
2022/09/22 02:38:52;;;;;;;3.65;3.30;;;15.00;81.90;;;;;;5041327;28;20041;-82
2022/09/22 02:41:24;;;;;;;4.15;3.38;;;15.00;81.90;;;;;;5023241;28;20096;-81
2022/09/22 02:44:04;;;;;;;3.67;3.30;;;15.00;81.80;;;;;;5040655;28;20038;-81
2022/09/22 02:46:42;;;;;;;4.22;3.80;;;15.00;81.90;;;;;;5022143;28;20545;-80
2022/09/22 02:49:13;;;;;;;4.20;3.80;;;15.00;82.20;;;;;;5037812;28;20093;-79
2022/09/22 02:51:40;;;;;;;3.97;3.58;;;14.90;82.00;;;;;;5021656;28;20415;-79
2022/09/22 02:54:06;;;;;;;4.03;3.70;;;14.90;82.20;;;;;;5025279;28;20037;-81
2022/09/22 02:56:33;;;;;;;4.35;3.92;;;14.90;82.10;;;;;;5020407;28;20038;-81
2022/09/22 02:58:58;;;;;;;4.00;3.70;;;14.90;82.00;;;;;;5022729;28;20115;-81
2022/09/22 03:01:24;;;;;;;4.28;3.90;;;14.90;82.00;;;;;;5035864;28;20121;-81
2022/09/22 03:03:50;;;;;;;4.47;4.13;;;15.00;82.20;;;;;;5022262;28;20029;-82
2022/09/22 03:06:17;;;;;;;4.95;4.45;;;15.00;82.20;;;;;;5021342;28;20094;-81
2022/09/22 03:08:42;;;;;;;5.93;5.15;;;14.90;82.20;;;;;;5024016;28;20644;-82
2022/09/22 03:11:08;;;;;;;4.97;4.57;;;14.90;82.30;;;;;;5022967;28;20132;-81
2022/09/22 03:13:34;;;;;;;4.93;4.43;;;14.90;82.20;;;;;;5021362;28;20044;-81
2022/09/22 03:16:06;;;;;;;4.50;4.10;;;14.90;82.20;;;;;;5020385;28;20496;-80
2022/09/22 03:18:32;;;;;;;5.32;4.93;;;14.90;82.20;;;;;;5022443;28;20087;-77
2022/09/22 03:20:58;;;;;;;5.47;4.43;;;14.90;82.20;;;;;;5022425;28;20026;-80
2022/09/22 03:23:24;;;;;;;5.75;4.88;;;14.90;82.20;;;;;;5025695;28;20037;-80
2022/09/22 03:25:50;;;;;;;5.72;5.15;;;15.00;82.20;;;;;;5021726;28;20037;-80
2022/09/22 03:28:16;;;;;;;5.53;5.03;;;14.90;82.20;;;;;;5005526;28;20590;-78
2022/09/22 03:30:42;;;;;;;5.57;5.03;;;14.90;82.30;;;;;;5003963;28;20537;-81
2022/09/22 03:33:08;;;;;;;5.28;4.78;;;14.90;82.40;;;;;;5021069;28;20073;-81
2022/09/22 03:35:34;;;;;;;5.07;4.57;;;15.00;82.40;;;;;;5019990;28;20057;-81
2022/09/22 03:38:00;;;;;;;5.18;4.68;;;14.90;82.30;;;;;;5022808;28;20042;-79
2022/09/22 03:40:26;;;;;;;6.00;5.13;;;14.90;82.20;;;;;;5022146;28;20033;-81
2022/09/22 03:42:52;;;;;;;5.60;5.10;;;14.90;82.20;;;;;;5023155;28;20132;-79
2022/09/22 03:45:18;;;;;;;6.03;5.43;;;15.00;82.40;;;;;;5021662;28;20447;-79
2022/09/22 03:47:45;;;;;;;5.30;4.80;;;14.90;82.60;;;;;;5020637;28;20109;-80
2022/09/22 03:50:12;;;;;;;6.05;5.45;;;14.90;82.70;;;;;;5023147;28;20132;-80
2022/09/22 03:52:41;;;;;;;7.05;5.13;;;14.90;82.80;;;;;;5021599;28;20041;-78
2022/09/22 03:55:08;;;;;;;5.43;4.93;;;14.90;82.70;;;;;;5023281;28;20038;-77
2022/09/22 03:57:34;;;;;;;5.97;5.40;;;14.90;82.90;;;;;;5020602;28;20025;-76
2022/09/22 04:00:01;;;;;;;7.57;5.90;;;14.90;82.80;;;;;;5020844;28;20420;-76
2022/09/22 04:02:27;;;;;;;6.80;6.10;;;14.90;83.00;;;;;;5021706;28;20040;-81
2022/09/22 04:04:53;;;;;;;6.53;5.78;;;14.90;83.00;;;;;;5023122;28;20033;-79
2022/09/22 04:07:18;;;;;;;7.00;5.95;;;14.90;83.00;;;;;;5007889;28;20049;-83
2022/09/22 04:09:44;;;;;;;6.70;5.78;;;14.90;82.90;;;;;;5005495;28;20030;-81
2022/09/22 04:12:10;;;;;;;6.65;5.88;;;14.90;83.00;;;;;;5036012;28;20123;-81
2022/09/22 04:14:36;;;;;;;6.07;5.47;;;14.90;83.10;;;;;;5019839;28;20428;-79
2022/09/22 04:17:03;;;;;;;6.93;5.95;;;15.00;83.10;;;;;;5018310;28;20105;-79
2022/09/22 04:19:31;;;;;;;6.82;5.95;;;14.90;82.90;;;;;;5019973;28;20025;-81
2022/09/22 04:21:57;;;;;;;6.60;5.93;;;15.00;83.10;;;;;;5017965;28;20043;-79
2022/09/22 04:24:23;;;;;;;5.97;5.38;;;15.00;83.10;;;;;;5018445;28;20033;-82
2022/09/22 04:26:49;;;;;;;6.45;5.38;;;14.90;82.90;;;;;;5005060;28;20052;-80
2022/09/22 04:29:15;;;;;;;6.47;5.50;;;15.00;82.80;;;;;;5021908;28;20395;-83
2022/09/22 04:31:41;;;;;;;6.82;5.80;;;15.00;82.80;;;;;;4990175;28;20468;-82
2022/09/22 04:34:07;;;;;;;6.93;5.85;;;15.00;82.80;;;;;;5020170;28;20560;-83
2022/09/22 04:36:33;;;;;;;5.68;4.93;;;15.00;82.60;;;;;;5004617;28;20021;-83
2022/09/22 04:39:01;;;;;;;6.57;5.30;;;15.00;82.40;;;;;;5006954;28;20025;-86
2022/09/22 04:41:27;;;;;;;5.63;4.90;;;15.00;82.30;;;;;;5023528;28;20030;-82
2022/09/22 04:43:53;;;;;;;6.82;6.05;;;15.00;82.20;;;;;;5024474;28;20535;-85
2022/09/22 04:46:19;;;;;;;6.75;6.00;;;15.00;82.40;;;;;;5017228;28;20198;-78
2022/09/22 04:48:45;;;;;;;6.50;5.28;;;15.00;82.60;;;;;;5022973;28;20397;-77
2022/09/22 04:51:11;;;;;;;6.15;5.03;;;15.00;82.60;;;;;;5020935;28;20033;-81
2022/09/22 04:53:37;;;;;;;7.07;5.80;;;15.00;82.70;;;;;;5020980;28;20064;-86
2022/09/22 04:56:03;;;;;;;6.85;5.22;;;15.00;82.80;;;;;;5020841;28;20068;-86
2022/09/22 04:58:30;;;;;;;6.05;5.00;;;15.10;83.00;;;;;;5004963;28;20091;-87
2022/09/22 05:01:01;;;;;;;6.82;5.70;;;15.10;83.10;;;;;;5007603;28;20033;-87
2022/09/22 05:03:27;;;;;;;7.05;5.20;;;15.10;83.20;;;;;;5024996;28;20107;-87
2022/09/22 05:05:54;;;;;;;6.45;5.53;;;15.10;83.10;;;;;;5002468;28;20033;-87
2022/09/22 05:08:20;;;;;;;7.53;5.82;;;15.10;83.20;;;;;;5022466;28;20045;-85
2022/09/22 05:10:46;;;;;;;6.15;5.43;;;15.10;83.30;;;;;;5008378;28;20393;-87
2022/09/22 05:13:12;;;;;;;6.35;5.28;;;15.10;83.20;;;;;;5018964;28;20041;-86
2022/09/22 05:15:39;;;;;;;8.43;5.72;;;15.10;83.40;;;;;;5008702;28;20037;-87
2022/09/22 05:18:06;;;;;;;7.53;5.70;;;15.10;83.40;;;;;;5021908;28;20033;-86
2022/09/22 05:20:31;;;;;;;5.82;4.85;;;15.10;83.40;;;;;;5027564;28;20030;-87
2022/09/22 05:22:58;;;;;;;5.63;5.03;;;15.10;83.50;;;;;;5028479;28;20026;-88
2022/09/22 05:25:24;;;;;;;7.30;5.93;;;15.10;83.70;;;;;;5012677;28;20054;-84
2022/09/22 05:27:52;;;;;;;6.57;5.53;;;15.10;83.70;;;;;;5021234;28;20568;-87
2022/09/22 05:30:20;;;;;;;6.43;5.82;;;15.10;83.70;;;;;;5008003;28;20040;-87
2022/09/22 05:32:47;;;;;;;6.00;5.38;;;15.20;83.90;;;;;;5020025;28;20120;-87
2022/09/22 05:35:18;;;;;;;6.05;4.82;;;15.20;83.80;;;;;;5019497;28;20095;-85
2022/09/22 05:37:46;;;;;;;6.95;5.80;;;15.20;83.50;;;;;;5052825;28;20044;-87
2022/09/22 05:40:13;;;;;;;6.40;5.47;;;15.20;83.30;;;;;;5020412;28;20038;-89
2022/09/22 05:42:43;;;;;;;7.38;5.47;;;15.20;83.30;;;;;;4991932;28;20033;-87
2022/09/22 05:45:09;;;;;;;5.63;5.07;;;15.20;83.30;;;;;;5020371;28;20124;-86
2022/09/22 05:47:35;;;;;;;5.57;4.95;;;15.20;83.20;;;;;;5019985;28;20087;-82
2022/09/22 05:50:02;;;;;;;5.57;5.05;;;15.20;83.00;;;;;;5019499;28;20416;-81
2022/09/22 05:52:27;;;;;;;6.28;5.20;;;15.20;82.90;;;;;;5023720;28;20068;-82
2022/09/22 05:54:53;;;;;;;5.72;4.55;;;15.20;82.90;;;;;;5020273;28;20115;-83
2022/09/22 05:57:24;;;;;;;5.63;5.13;;;15.20;82.60;;;;;;5018382;28;20035;-84
2022/09/22 05:59:54;;;;;;;7.53;5.65;;;15.30;82.70;;;;;;5035635;28;20413;-84
2022/09/22 06:02:20;;;;;;;6.40;5.80;;;15.30;82.60;;;;;;5025345;28;20037;-84
2022/09/22 06:04:46;;;;;;;6.32;5.55;;;15.30;82.80;;;;;;5024055;28;20060;-84
2022/09/22 06:07:12;;;;;;;5.97;5.30;;;15.30;82.60;;;;;;5021942;28;20112;-84
2022/09/22 06:09:38;;;;;;;7.57;5.80;;;15.30;82.40;;;;;;5009161;28;20112;-84
2022/09/22 06:12:07;;;;;;;6.32;5.38;;;15.30;82.30;;;;;;5005760;28;20030;-82
2022/09/22 06:14:35;;;;;;;7.32;5.38;;;15.30;82.20;;;;;;4993293;28;20033;-83
2022/09/22 06:17:02;;;;;;;6.63;5.60;;;15.30;82.10;;;;;;5022658;28;20370;-84
2022/09/22 06:19:28;;;;;;;6.88;5.25;;;15.40;82.10;;;;;;5022750;28;20037;-85
2022/09/22 06:21:54;;;;;;;6.25;5.28;;;15.40;82.40;;;;;;5038793;28;20049;-83
2022/09/22 06:24:22;;;;;;;7.22;5.40;;;15.30;82.20;;;;;;5010556;28;20539;-83
2022/09/22 06:26:49;;;;;;;6.22;5.18;;;15.30;82.00;;;;;;5020593;28;20049;-84
2022/09/22 06:29:15;;;;;;;6.25;5.65;;;15.30;82.00;;;;;;5007420;28;20172;-85
2022/09/22 06:31:44;;;;;;;6.68;6.00;;;15.40;82.30;;;;;;5010355;28;20520;-83
2022/09/22 06:34:10;;;;;;;5.97;5.32;;;15.40;82.10;;;;;;5010487;28;20124;-84
2022/09/22 06:36:37;;;;;;;6.22;5.63;;;15.40;82.60;;;;;;5039793;28;20129;-83
2022/09/22 06:39:03;;;;;;;5.70;5.20;;;15.40;81.80;;;;;;5010901;28;20029;-84
2022/09/22 06:41:31;;;;;;;6.55;5.72;;;15.40;81.80;;;;;;5004928;28;20536;-85
2022/09/22 06:44:01;;;;;;;6.50;5.60;;;15.40;81.80;;;;;;5007560;28;21049;-83
2022/09/22 06:46:31;;;;;;;6.15;5.25;;;15.40;81.70;;;;;;5009072;28;20534;-84
2022/09/22 06:48:57;;;;;;;5.75;4.90;;;15.40;81.60;;;;;;5039399;28;20091;-84
2022/09/22 06:51:25;;;;;;;6.63;5.90;;;15.40;81.60;;;;;;5021149;28;20447;-83
2022/09/22 06:53:55;;;;;;;6.05;5.45;;;15.50;82.20;;;;;;5022123;28;20049;-84
2022/09/22 06:56:25;;;;;;;6.72;5.72;;;15.50;81.50;;;;;;5009442;28;20049;-85
2022/09/22 06:58:51;;;;;;;6.65;5.80;;;15.50;81.50;;;;;;5037047;28;20042;-86
2022/09/22 07:01:18;;;;;;;6.47;5.78;;;15.50;81.50;;;;;;5020272;28;20447;-84
2022/09/22 07:03:45;;;;;;;6.07;5.13;;;15.50;81.50;;;;;;5005872;28;20042;-83
2022/09/22 07:06:17;;;;;;;5.43;4.93;;;15.50;81.30;;;;;;5022261;28;20651;-84
2022/09/22 07:08:44;;;;;;;6.43;5.30;;;15.50;81.30;;;;;;5022090;28;20038;-83
2022/09/22 07:11:12;;;;;;;6.93;5.38;;;15.50;81.30;;;;;;5018283;28;20495;-84
2022/09/22 07:13:40;;;;;;;7.25;6.43;;;15.50;81.30;;;;;;5013290;28;20033;-83
2022/09/22 07:16:12;;;;;;;6.00;5.40;;;15.40;81.90;;;;;;4993104;28;20088;-82
2022/09/22 07:18:40;;;;;;;8.18;7.25;;;15.50;81.80;;;;;;5042054;28;20044;-83
2022/09/22 07:21:08;;;;;;;10.15;8.65;;;15.50;82.10;;;;;;5025795;28;20128;-83
2022/09/22 07:23:35;;;;;;;12.07;9.60;;;15.50;81.90;;;;;;4991866;28;20030;-84
2022/09/22 07:26:06;;;;;;;11.77;8.30;;;15.40;81.60;;;;;;5035669;28;20053;-77
2022/09/22 07:28:33;;;;;;;8.65;7.50;;;15.40;81.70;;;;;;5022366;28;20056;-76
2022/09/22 07:31:04;;;;;;;7.43;6.13;;;15.40;82.30;;;;;;5044078;28;20513;-76
2022/09/22 07:33:35;;;;;;;8.75;6.18;;;15.40;83.00;;;;;;5009651;28;20509;-77
2022/09/22 07:36:03;;;;;;;8.00;6.00;;;15.40;83.00;;;;;;5027983;28;20044;-76
2022/09/22 07:38:31;;;;;;;9.13;6.78;;;15.50;82.90;;;;;;5032027;28;20048;-78
2022/09/22 07:40:58;;;;;;;8.65;6.88;;;15.50;82.90;;;;;;5011465;28;20124;-84
2022/09/22 07:43:24;;;;;;;12.88;8.52;;;15.60;82.70;;;;;;5019473;28;20438;-82
2022/09/22 07:45:54;;;;;;;10.75;8.35;;;15.60;82.10;;;;;;5025068;28;20092;-84
2022/09/22 07:48:36;;;;;;;11.05;9.55;;;15.60;81.70;;;;;;5021985;28;20665;-82
2022/09/22 07:51:17;;;;;;;10.90;9.38;;;15.60;81.50;;;;;;5019413;28;20504;-84
2022/09/22 07:53:44;;;;;;;10.77;8.55;;;15.50;81.60;;;;;;5017483;28;20619;-82
2022/09/22 07:56:15;;;;;;;13.98;10.02;;;15.50;81.80;;;;;;5005098;28;20038;-85
2022/09/22 07:58:52;;;;;;;10.50;8.77;;;15.40;81.80;;;;;;5011567;28;20052;-81
2022/09/22 08:01:21;;;;;;;9.45;8.07;;;15.40;81.90;;;;;;5036224;28;20040;-82
2022/09/22 08:03:47;;;;;;;11.20;8.32;;;15.40;82.00;;;;;;5020719;28;20033;-84
2022/09/22 08:06:15;;;;;;;9.50;8.40;;;15.30;81.80;;;;;;5020513;28;20022;-82
2022/09/22 08:08:47;;;;;;;8.43;7.53;;;15.30;81.70;;;;;;5008066;28;21041;-82
2022/09/22 08:11:16;;;;;;;8.88;7.65;;;15.20;81.70;;;;;;5024106;28;20034;-82
2022/09/22 08:13:53;;;;;;;10.90;8.20;;;15.20;81.80;;;;;;5020994;28;20045;-80
2022/09/22 08:16:27;;;;;;;7.63;6.82;;;15.20;81.80;;;;;;5019929;28;20034;-79
2022/09/22 08:18:57;;;;;;;7.40;6.60;;;15.20;81.90;;;;;;5019008;28;20034;-81
2022/09/22 08:21:37;;;;;;;7.45;6.20;;;15.20;82.20;;;;;;5023522;28;20037;-82
2022/09/22 08:24:08;;;;;;;8.50;6.43;;;15.30;82.10;;;;;;5018951;28;20051;-81
2022/09/22 08:26:35;;;;;;;7.93;6.85;;;15.30;82.00;;;;;;5023028;28;20034;-82
2022/09/22 08:29:03;;;;;;;7.43;6.65;;;15.30;81.90;;;;;;5022136;28;20069;-80
2022/09/22 08:31:30;;;;;;;6.88;6.03;;;15.30;81.70;;;;;;5018324;28;20033;-81
2022/09/22 08:33:56;;;;;;;8.43;7.05;;;15.30;81.70;;;;;;5020203;28;20413;-81
2022/09/22 08:36:24;;;;;;;8.52;7.25;;;15.30;81.70;;;;;;5003586;28;20578;-81
2022/09/22 08:38:50;;;;;;;10.35;7.55;;;15.30;81.60;;;;;;5018350;28;20062;-81
2022/09/22 08:41:33;;;;;;;10.63;7.90;;;15.30;81.60;;;;;;5017544;28;20068;-80
2022/09/22 08:44:09;;;;;;;10.60;8.10;;;15.30;81.60;;;;;;5021188;28;20041;-81
2022/09/22 08:46:37;;;;;;;9.98;6.88;;;15.20;81.60;;;;;;5020908;28;20041;-81
2022/09/22 08:52:43;;;;;;;8.82;7.78;;;15.10;81.80;;;;;;5007675;28;20030;-81
2022/09/22 08:55:21;;;;;;;10.25;8.15;;;15.10;81.60;;;;;;5023886;28;20044;-82
2022/09/22 08:58:05;;;;;;;9.88;8.15;;;15.10;81.90;;;;;;5020194;28;20029;-81
2022/09/22 09:00:47;;;;;;;10.60;8.65;;;15.10;81.80;;;;;;5020802;28;20049;-83
2022/09/22 09:03:31;;;;;;;9.63;7.97;;;15.10;81.80;;;;;;5004442;28;20042;-82
2022/09/22 09:06:17;;;;;;;9.13;8.18;;;15.10;81.90;;;;;;5002354;28;20036;-82
2022/09/22 09:09:00;;;;;;;10.20;8.75;;;15.10;82.00;;;;;;4988144;28;20030;-81
2022/09/22 09:11:57;;;;;;;9.27;8.10;;;15.10;81.90;;;;;;5024083;28;20033;-81
2022/09/22 09:14:25;;;;;;;;;;;15.10;82.00;;;;;;5003857;28;20634;-81
2022/09/22 09:16:54;;;;;;;10.57;8.57;;;15.10;81.80;;;;;;5006639;28;19963;-82
2022/09/22 09:19:26;;;;;;;8.45;7.55;;;15.10;81.60;;;;;;5008135;28;20476;-83
2022/09/22 09:22:08;;;;;;;9.05;7.97;;;15.10;81.80;;;;;;4990338;28;20496;-81
2022/09/22 09:24:48;;;;;;;10.27;7.75;;;15.10;81.50;;;;;;4990708;28;20039;-82
2022/09/22 09:27:22;;;;;;;7.55;6.82;;;15.10;81.50;;;;;;5002467;28;20065;-82
2022/09/22 09:29:53;;;;;;;7.45;6.75;;;15.10;81.60;;;;;;5030214;28;20033;-81
2022/09/22 09:32:58;;;;;;;8.02;7.00;;;15.10;81.60;;;;;;5019947;28;20467;-81
2022/09/22 09:35:42;;;;;;;6.97;6.10;;;15.10;81.50;;;;;;5011455;28;20044;-82
2022/09/22 09:38:28;;;;;;;7.78;6.97;;;15.10;81.30;;;;;;5037542;28;20042;-82
2022/09/22 09:41:14;;;;;;;6.47;5.88;;;15.20;81.10;;;;;;5026950;28;20100;-82
2022/09/22 09:43:43;;;;;;;5.65;5.15;;;15.20;80.90;;;;;;5024800;28;20907;-82
2022/09/22 09:46:33;;;;;;;5.75;5.25;;;15.20;80.80;;;;;;5006469;28;20099;-82
2022/09/22 09:49:25;;;;;;;6.63;6.03;;;15.20;80.80;;;;;;5025501;28;20116;-82
2022/09/22 09:51:58;;;;;;;7.32;6.00;;;15.30;80.60;;;;;;5006607;28;20393;-82
2022/09/22 09:54:26;;;;;;;6.88;5.80;;;15.30;80.60;;;;;;5027403;28;20029;-82
2022/09/22 09:57:13;;;;;;;6.40;5.80;;;15.30;80.60;;;;;;5009800;28;20084;-82
2022/09/22 10:02:51;;;;;;;6.85;6.15;;;15.40;80.30;;;;;;5023383;28;20037;-81
2022/09/22 10:05:16;;;;;;;7.07;6.38;;;15.40;80.00;;;;;;5021627;28;20651;-82
2022/09/22 10:07:46;;;;;;;7.43;6.60;;;15.40;79.90;;;;;;5027105;28;20065;-82
2022/09/22 10:10:28;;;;;;;6.47;5.88;;;15.40;79.80;;;;;;5018368;28;20049;-81
2022/09/22 10:13:23;;;;;;;6.25;5.57;;;15.30;79.90;;;;;;5001665;28;20072;-81
2022/09/22 10:16:06;;;;;;;6.63;5.82;;;15.40;80.00;;;;;;5026392;28;20037;-81
2022/09/22 10:18:39;;;;;;;6.93;6.22;;;15.40;79.90;;;;;;5025506;28;20377;-82
2022/09/22 10:21:19;;;;;;;7.00;6.40;;;15.40;79.90;;;;;;5023214;28;20531;-80
2022/09/22 10:23:49;;;;;;;7.28;6.63;;;15.40;79.80;;;;;;5026176;28;20041;-81
2022/09/22 10:26:21;;;;;;;7.07;6.38;;;15.30;79.80;;;;;;5022698;28;20033;-82
2022/09/22 10:29:19;;;;;;;6.78;6.18;;;15.30;79.90;;;;;;5009302;28;20060;-80
2022/09/22 10:32:04;;;;;;;7.03;6.18;;;15.30;80.00;;;;;;5020940;28;20112;-81
2022/09/22 10:34:34;;;;;;;5.53;5.03;;;15.40;79.90;;;;;;5006735;28;20052;-82
2022/09/22 10:37:09;;;;;;;5.65;5.20;;;15.40;79.90;;;;;;5007838;28;20136;-82
2022/09/22 10:39:46;;;;;;;5.22;4.78;;;15.40;79.90;;;;;;5027030;28;20033;-83
2022/09/22 10:42:34;;;;;;;5.55;5.05;;;15.40;79.80;;;;;;5022078;28;20080;-82
2022/09/22 10:45:09;;;;;;;5.43;4.93;;;15.50;79.80;;;;;;5000352;28;20082;-82
2022/09/22 10:47:53;;;;;;;5.82;4.88;;;15.50;79.60;;;;;;5016368;28;20041;-81
2022/09/22 10:50:41;;;;;;;6.00;5.45;;;15.50;79.60;;;;;;5022908;28;20087;-82
2022/09/22 10:53:26;;;;;;;5.20;4.75;;;15.50;79.60;;;;;;5005900;28;20040;-82
2022/09/22 10:56:03;;;;;;;8.43;5.73;;;15.50;79.60;;;;;;5002872;28;20413;-82
2022/09/22 10:58:43;;;;;;;5.30;4.80;;;15.60;79.40;;;;;;5002208;28;21088;-83
2022/09/22 11:01:36;;;;;;;4.90;4.50;;;15.50;79.20;;;;;;5022767;28;20042;-83
2022/09/22 11:04:22;;;;;;;4.57;4.18;;;15.50;79.20;;;;;;5025531;28;20801;-82
2022/09/22 11:13:47;;;;;;;4.43;4.03;;;15.60;78.90;;;;;;5036249;28;20123;-82
2022/09/22 11:16:26;;;;;;;4.07;3.78;;;15.60;78.90;;;;;;5021677;28;20068;-83
2022/09/22 11:19:07;;;;;;;4.90;4.40;;;15.60;79.00;;;;;;5021595;28;20042;-83
2022/09/22 11:21:36;;;;;;;5.40;4.35;;;15.60;79.00;;;;;;5037235;28;20497;-81
2022/09/22 11:24:11;;;;;;;5.68;3.80;;;15.60;79.00;;;;;;5025501;28;20125;-82
2022/09/22 11:26:43;;;;;;;4.22;3.83;;;15.60;78.90;;;;;;5020319;28;20033;-80
2022/09/22 11:29:47;;;;;;;5.75;4.47;;;15.60;78.90;;;;;;5033197;28;20417;-81
2022/09/22 11:32:48;;;;;;;4.70;4.30;;;15.60;78.80;;;;;;5023749;28;20461;-81
2022/09/22 11:35:32;;;;;;;4.70;4.30;;;15.60;78.70;;;;;;5058801;28;20147;-81
2022/09/22 11:38:10;;;;;;;4.45;4.05;;;15.60;78.60;;;;;;5032454;28;20037;-82
2022/09/22 11:40:51;;;;;;;4.50;4.07;;;15.60;78.60;;;;;;5032492;28;20033;-83
2022/09/22 11:43:19;;;;;;;5.43;4.82;;;15.60;78.60;;;;;;5048842;28;20071;-84
2022/09/22 11:45:56;;;;;;;5.90;5.25;;;15.60;78.90;;;;;;5028832;28;21168;-84
2022/09/22 11:48:59;;;;;;;5.00;4.50;;;15.60;78.90;;;;;;5061394;28;20042;-83
2022/09/22 11:51:49;;;;;;;4.35;3.95;;;15.60;78.90;;;;;;5043587;28;20832;-83
2022/09/22 11:54:33;;;;;;;5.47;4.05;;;15.60;78.70;;;;;;5044807;28;20117;-88
2022/09/22 11:57:07;;;;;;;4.40;4.10;;;15.60;78.60;;;;;;5067422;28;20136;-87
2022/09/22 11:59:54;;;;;;;4.20;3.90;;;15.60;78.60;;;;;;5034717;28;20060;-87
2022/09/22 12:02:54;;;;;;;4.03;3.67;;;15.50;78.70;;;;;;5035408;28;20124;-87
2022/09/22 12:05:29;;;;;;;4.70;4.18;;;15.50;78.90;;;;;;4974521;28;20042;-88
2022/09/22 12:08:27;;;;;;;3.95;3.65;;;15.60;78.80;;;;;;5006362;28;20041;-88
2022/09/22 12:10:55;;;;;;;4.50;4.10;;;15.50;78.90;;;;;;4984166;28;20030;-88
2022/09/22 12:13:27;;;;;;;4.93;4.35;;;15.60;78.80;;;;;;4956567;28;20425;-88
2022/09/22 12:16:11;;;;;;;5.00;4.50;;;15.60;78.80;;;;;;4944352;28;20037;-88
2022/09/22 12:22:04;;;;;;;4.50;4.10;;;15.60;78.60;;;;;;4967716;28;20066;-91
2022/09/22 12:24:31;;;;;;;5.22;4.15;;;15.70;78.70;;;;;;4942205;28;20035;-91
2022/09/22 12:27:07;;;;;;;5.40;4.90;;;15.60;78.60;;;;;;4956450;28;20166;-88
2022/09/22 12:29:35;;;;;;;5.05;4.55;;;15.70;78.70;;;;;;4938459;28;20038;-89
2022/09/22 12:32:01;;;;;;;5.00;4.60;;;15.70;78.70;;;;;;4915643;29;20058;-85
2022/09/22 12:34:38;;;;;;;4.80;4.40;;;15.70;78.80;;;;;;4927010;29;20226;-86
2022/09/22 12:37:36;;;;;;;5.78;5.28;;;15.70;78.70;;;;;;4954265;28;20580;-87
2022/09/22 12:40:29;;;;;;;5.72;4.70;;;15.70;78.80;;;;;;4953123;28;20043;-87
2022/09/22 12:42:58;;;;;;;4.75;4.32;;;15.80;78.70;;;;;;5025008;28;20041;-89
2022/09/22 12:45:24;;;;;;;5.80;5.07;;;15.80;78.50;;;;;;5025498;28;20045;-89
2022/09/22 12:47:53;;;;;;;5.78;5.20;;;15.80;78.50;;;;;;5011154;28;20120;-92
2022/09/22 12:50:33;;;;;;;6.18;4.55;;;15.80;78.50;;;;;;5022045;28;20040;-81
2022/09/22 12:53:24;;;;;;;5.38;4.88;;;15.80;78.40;;;;;;5019093;28;20034;-88
2022/09/22 12:55:55;;;;;;;4.85;4.35;;;15.80;78.50;;;;;;5015366;28;20501;-87
2022/09/22 12:58:22;;;;;;;4.75;4.35;;;15.90;78.40;;;;;;5001708;28;20049;-83
2022/09/22 13:01:15;;;;;;;6.80;4.20;;;15.80;78.40;;;;;;5005466;28;20033;-80
2022/09/22 13:03:51;;;;;;;4.40;4.00;;;15.80;78.30;;;;;;5006880;28;20041;-83
2022/09/22 13:06:20;;;;;;;4.97;4.43;;;15.80;78.40;;;;;;5008375;28;20084;-86
2022/09/22 13:08:53;;;;;;;5.10;4.60;;;15.80;78.50;;;;;;5008232;28;20061;-86
2022/09/22 13:11:39;;;;;;;5.03;4.53;;;15.80;78.80;;;;;;5020411;28;20444;-86
2022/09/22 13:14:44;;;;;;;5.68;5.07;;;15.70;78.80;;;;;;5017381;28;20021;-88
2022/09/22 13:17:40;;;;;;;4.93;4.43;;;15.70;78.90;;;;;;5044233;28;20039;-88
2022/09/22 13:20:14;;;;;;;6.22;5.53;;;15.70;79.00;;;;;;5017936;28;20033;-86
2022/09/22 13:22:40;;;;;;;5.25;4.78;;;15.70;79.00;;;;;;5028461;28;20352;-87
2022/09/22 13:25:30;;;;;;;5.88;5.28;;;15.70;79.20;;;;;;5000555;28;20038;-88
2022/09/22 13:28:08;;;;;;;5.57;5.07;;;15.70;79.40;;;;;;5025440;28;20037;-90
2022/09/22 13:30:36;;;;;;;6.07;5.47;;;15.70;79.40;;;;;;5037634;28;20059;-90
2022/09/22 13:33:03;;;;;;;5.57;5.07;;;15.70;79.40;;;;;;5024408;28;20065;-88